createdAt,value
2019-01-19T00:01:39.478Z,12.33
2019-01-19T00:04:17.060Z,13.28
2019-01-19T00:06:51.679Z,13.33
2019-01-19T00:09:39.909Z,12.82
2019-01-19T00:12:23.371Z,12.95
2019-01-19T00:14:53.023Z,12.23
2019-01-19T00:17:30.440Z,14.70
2019-01-19T00:20:33.957Z,14.73
2019-01-19T00:23:24.016Z,13.48
2019-01-19T00:25:58.279Z,12.25
2019-01-19T00:28:32.623Z,11.55
2019-01-19T00:31:13.080Z,12.15
2019-01-19T00:33:56.968Z,12.28
2019-01-19T00:36:31.549Z,11.05
2019-01-19T00:39:09.019Z,12.30
2019-01-19T00:41:49.492Z,11.05
2019-01-19T00:44:36.036Z,11.18
2019-01-19T00:47:13.649Z,10.95
2019-01-19T00:49:45.203Z,11.48
2019-01-19T00:52:38.244Z,10.78
2019-01-19T00:55:15.625Z,10.40
2019-01-19T00:57:49.788Z,11.68
2019-01-19T01:00:24.036Z,11.12
2019-01-19T01:02:58.507Z,10.35
2019-01-19T01:05:30.256Z,11.83
2019-01-19T01:08:20.475Z,10.80
2019-01-19T01:10:54.688Z,10.60
2019-01-19T01:13:52.256Z,10.43
2019-01-19T01:16:26.843Z,10.28
2019-01-19T01:19:07.323Z,10.53
2019-01-19T01:22:01.760Z,10.58
2019-01-19T01:24:33.531Z,11.63
2019-01-19T01:27:08.143Z,10.77
2019-01-19T01:29:52.207Z,11.97
2019-01-19T01:32:35.703Z,10.70
2019-01-19T01:35:19.230Z,10.40
2019-01-19T01:37:59.761Z,10.53
2019-01-19T01:40:31.451Z,10.03
2019-01-19T01:43:17.798Z,11.18
2019-01-19T01:46:57.452Z,12.28
2019-01-19T01:49:29.154Z,10.82
2019-01-19T01:52:10.077Z,11.60
2019-01-19T01:54:44.481Z,10.23
2019-01-19T01:57:16.127Z,12.28
2019-01-19T01:59:50.612Z,12.65
2019-01-19T02:02:24.896Z,11.33
2019-01-19T02:05:08.694Z,11.97
2019-01-19T02:08:04.828Z,11.65
2019-01-19T02:10:36.531Z,11.70
2019-01-19T02:13:14.434Z,12.60
2019-01-19T02:16:11.713Z,11.83
2019-01-19T02:19:01.361Z,11.28
2019-01-19T02:22:06.651Z,11.55
2019-01-19T02:24:44.209Z,12.07
2019-01-19T02:27:35.595Z,12.40
2019-01-19T02:30:16.420Z,12.13
2019-01-19T02:32:53.737Z,12.33
2019-01-19T02:35:31.343Z,11.83
2019-01-19T02:38:11.808Z,14.80
2019-01-19T02:40:49.247Z,12.13
2019-01-19T02:43:26.665Z,13.65
2019-01-19T02:46:16.843Z,12.75
2019-01-19T02:49:06.584Z,13.65
2019-01-19T02:51:41.395Z,12.82
2019-01-19T02:54:27.408Z,15.30
2019-01-19T02:57:04.664Z,13.20
2019-01-19T02:59:48.180Z,13.35
2019-01-19T03:02:26.128Z,14.45
2019-01-19T03:05:00.439Z,14.47
2019-01-19T03:07:37.503Z,14.85
2019-01-19T03:10:27.380Z,16.67
2019-01-19T03:13:17.452Z,14.40
2019-01-19T03:15:49.129Z,14.75
2019-01-19T03:18:32.711Z,15.20
2019-01-19T03:21:13.218Z,15.23
2019-01-19T03:23:57.005Z,15.38
2019-01-19T03:26:46.880Z,15.08
2019-01-19T03:29:27.692Z,16.73
2019-01-19T03:32:08.228Z,14.75
2019-01-19T03:34:45.832Z,14.55
2019-01-19T03:37:32.461Z,14.98
2019-01-19T03:40:30.229Z,15.40
2019-01-19T03:43:23.012Z,15.58
2019-01-19T03:46:14.514Z,15.58
2019-01-19T03:49:05.676Z,16.45
2019-01-19T03:52:07.631Z,16.25
2019-01-19T03:54:42.274Z,16.07
2019-01-19T03:57:22.236Z,16.15
2019-01-19T04:00:22.809Z,15.10
2019-01-19T04:03:11.183Z,15.00
2019-01-19T04:05:51.529Z,16.10
2019-01-19T04:08:31.895Z,15.90
2019-01-19T04:11:15.694Z,16.90
2019-01-19T04:13:50.276Z,16.52
2019-01-19T04:16:42.997Z,16.95
2019-01-19T04:19:23.671Z,17.23
2019-01-19T04:22:01.062Z,15.53
2019-01-19T04:24:33.123Z,16.87
2019-01-19T04:27:01.888Z,16.02
2019-01-19T04:29:30.619Z,16.12
2019-01-19T04:31:59.379Z,16.05
2019-01-19T04:34:28.607Z,17.10
2019-01-19T04:36:57.539Z,16.27
2019-01-19T04:39:26.549Z,18.17
2019-01-19T04:41:55.312Z,16.27
2019-01-19T04:44:24.098Z,16.45
2019-01-19T04:46:52.856Z,16.82
2019-01-19T04:49:21.588Z,19.17
2019-01-19T04:51:50.340Z,17.57
2019-01-19T04:54:19.076Z,17.40
2019-01-19T04:56:47.840Z,17.92
2019-01-19T04:59:16.619Z,18.82
2019-01-19T05:01:45.383Z,20.68
2019-01-19T05:04:14.115Z,19.32
2019-01-19T05:06:42.878Z,18.40
2019-01-19T05:09:11.616Z,19.02
2019-01-19T05:11:40.374Z,19.92
2019-01-19T05:14:09.118Z,20.00
2019-01-19T05:16:37.878Z,20.55
2019-01-19T05:19:06.635Z,20.32
2019-01-19T05:21:35.639Z,20.40
2019-01-19T05:24:04.672Z,19.73
2019-01-19T05:26:33.431Z,21.00
2019-01-19T05:29:02.163Z,19.87
2019-01-19T05:31:30.941Z,19.85
2019-01-19T05:33:59.676Z,20.70
2019-01-19T05:36:28.440Z,19.62
2019-01-19T05:38:57.172Z,22.62
2019-01-19T05:41:26.102Z,20.82
2019-01-19T05:43:54.836Z,21.90
2019-01-19T05:46:23.603Z,21.42
2019-01-19T05:48:52.336Z,21.05
2019-01-19T05:51:21.104Z,23.85
2019-01-19T05:53:49.868Z,22.15
2019-01-19T05:56:18.604Z,20.97
2019-01-19T05:58:47.375Z,20.73
2019-01-19T06:01:16.388Z,20.20
2019-01-19T06:03:45.144Z,21.30
2019-01-19T06:06:13.953Z,21.82
2019-01-19T06:08:42.784Z,22.37
2019-01-19T06:11:11.508Z,19.60
2019-01-19T06:13:40.272Z,21.10
2019-01-19T06:16:09.208Z,23.27
2019-01-19T06:18:38.435Z,23.75
2019-01-19T06:21:08.559Z,25.05
2019-01-19T06:23:37.327Z,21.25
2019-01-19T06:26:06.056Z,21.67
2019-01-19T06:28:34.855Z,23.40
2019-01-19T06:31:03.605Z,22.32
2019-01-19T06:33:32.369Z,22.50
2019-01-19T06:36:01.107Z,22.37
2019-01-19T06:38:29.913Z,23.32
2019-01-19T06:40:58.683Z,22.62
2019-01-19T06:43:27.443Z,23.32
2019-01-19T06:45:56.339Z,23.30
2019-01-19T06:48:25.163Z,22.65
2019-01-19T06:50:53.897Z,20.70
2019-01-19T06:53:22.657Z,22.67
2019-01-19T06:55:51.477Z,22.42
2019-01-19T06:58:20.243Z,22.15
2019-01-19T07:00:49.185Z,21.35
2019-01-19T07:03:17.944Z,22.22
2019-01-19T07:05:46.787Z,23.38
2019-01-19T07:08:15.817Z,21.77
2019-01-19T07:10:45.247Z,21.62
2019-01-19T07:13:15.099Z,22.52
2019-01-19T07:15:44.022Z,23.27
2019-01-19T07:18:14.171Z,22.55
2019-01-19T07:20:42.974Z,23.62
2019-01-19T07:23:12.486Z,21.73
2019-01-19T07:25:43.454Z,22.85
2019-01-19T07:28:12.788Z,21.15
2019-01-19T07:30:41.561Z,20.57
2019-01-19T07:33:10.359Z,20.02
2019-01-19T07:35:39.100Z,20.62
2019-01-19T07:38:07.872Z,20.85
2019-01-19T07:40:36.684Z,19.98
2019-01-19T07:43:07.630Z,20.77
2019-01-19T07:45:36.347Z,20.70
2019-01-19T07:48:06.760Z,19.40
2019-01-19T07:50:35.651Z,19.52
2019-01-19T07:53:04.739Z,19.37
2019-01-19T07:55:33.843Z,21.10
2019-01-19T07:58:06.217Z,19.60
2019-01-19T08:00:35.783Z,19.52
2019-01-19T08:03:04.837Z,21.23
2019-01-19T08:05:33.659Z,22.27
2019-01-19T08:08:02.415Z,21.23
2019-01-19T08:10:31.249Z,19.87
2019-01-19T08:13:00.083Z,20.43
2019-01-19T08:15:29.560Z,19.93
2019-01-19T08:17:58.491Z,20.15
2019-01-19T08:20:27.260Z,21.80
2019-01-19T08:22:56.000Z,21.55
2019-01-19T08:25:25.132Z,20.75
2019-01-19T08:27:53.827Z,20.27
2019-01-19T08:30:28.016Z,22.65
2019-01-19T08:32:57.487Z,20.40
2019-01-19T08:35:27.642Z,21.12
2019-01-19T08:37:56.390Z,21.27
2019-01-19T08:40:27.547Z,23.90
2019-01-19T08:43:03.844Z,22.42
2019-01-19T08:45:32.704Z,21.45
2019-01-19T08:48:02.311Z,20.65
2019-01-19T08:50:31.080Z,23.18
2019-01-19T08:52:59.808Z,22.55
2019-01-19T08:55:28.950Z,20.45
2019-01-19T08:57:57.708Z,22.42
2019-01-19T09:00:27.106Z,20.25
2019-01-19T09:02:55.852Z,24.00
2019-01-19T09:05:24.587Z,19.55
2019-01-19T09:07:53.432Z,21.40
2019-01-19T09:10:22.235Z,21.05
2019-01-19T09:12:51.700Z,20.37
2019-01-19T09:15:23.490Z,20.57
2019-01-19T09:17:52.254Z,21.05
2019-01-19T09:20:20.987Z,20.05
2019-01-19T09:22:54.616Z,20.55
2019-01-19T09:25:23.355Z,19.45
2019-01-19T09:27:52.116Z,19.27
2019-01-19T09:30:22.850Z,18.92
2019-01-19T09:32:51.684Z,20.82
2019-01-19T09:35:20.415Z,18.92
2019-01-19T09:37:49.178Z,18.23
2019-01-19T09:40:18.931Z,20.83
2019-01-19T09:42:47.696Z,21.02
2019-01-19T09:45:17.919Z,22.83
2019-01-19T09:47:48.102Z,21.77
2019-01-19T09:50:18.432Z,22.58
2019-01-19T09:52:47.191Z,20.85
2019-01-19T09:55:16.036Z,19.90
2019-01-19T09:57:44.864Z,21.20
2019-01-19T10:00:18.739Z,20.12
2019-01-19T10:02:47.751Z,21.50
2019-01-19T10:05:19.151Z,21.23
2019-01-19T10:07:48.728Z,20.17
2019-01-19T10:10:17.763Z,22.15
2019-01-19T10:12:46.528Z,21.50
2019-01-19T10:15:16.967Z,20.43
2019-01-19T10:17:45.775Z,22.20
2019-01-19T10:20:23.682Z,20.77
2019-01-19T10:22:52.443Z,20.05
2019-01-19T10:25:21.188Z,20.02
2019-01-19T10:27:50.024Z,22.48
2019-01-19T10:30:21.328Z,23.70
2019-01-19T10:32:50.091Z,20.05
2019-01-19T10:35:18.852Z,20.00
2019-01-19T10:37:47.685Z,20.08
2019-01-19T10:40:18.055Z,21.95
2019-01-19T10:42:46.792Z,25.13
2019-01-19T10:45:26.311Z,19.67
2019-01-19T10:47:55.054Z,18.95
2019-01-19T10:50:23.821Z,20.85
2019-01-19T10:52:52.548Z,19.20
2019-01-19T10:55:22.711Z,18.50
2019-01-19T10:57:51.640Z,18.32
2019-01-19T11:00:31.954Z,17.32
2019-01-19T11:03:00.955Z,18.17
2019-01-19T11:05:30.363Z,18.67
2019-01-19T11:08:03.579Z,19.48
2019-01-19T11:10:33.818Z,17.60
2019-01-19T11:13:02.623Z,25.30
2019-01-19T11:15:31.383Z,17.32
2019-01-19T11:18:00.228Z,18.50
2019-01-19T11:20:32.328Z,16.07
2019-01-19T11:23:01.913Z,17.50
2019-01-19T11:25:30.952Z,15.68
2019-01-19T11:27:59.683Z,17.85
2019-01-19T11:30:32.669Z,17.87
2019-01-19T11:33:01.399Z,16.93
2019-01-19T11:35:30.452Z,17.57
2019-01-19T11:37:59.343Z,16.45
2019-01-19T11:40:30.878Z,16.35
2019-01-19T11:42:59.603Z,15.13
2019-01-19T11:45:28.371Z,18.45
2019-01-19T11:47:57.217Z,23.18
2019-01-19T11:50:27.171Z,16.90
2019-01-19T11:52:55.911Z,17.32
2019-01-19T11:55:24.672Z,18.30
2019-01-19T11:57:55.971Z,17.48
2019-01-19T12:00:36.483Z,16.40
2019-01-19T12:03:05.823Z,18.57
2019-01-19T12:05:34.688Z,17.75
2019-01-19T12:08:03.575Z,19.10
2019-01-19T12:10:32.659Z,21.97
2019-01-19T12:13:01.388Z,18.02
2019-01-19T12:15:31.031Z,18.65
2019-01-19T12:17:59.760Z,20.48
2019-01-19T12:20:36.739Z,17.52
2019-01-19T12:23:07.343Z,20.17
2019-01-19T12:25:36.456Z,19.12
2019-01-19T12:28:05.384Z,16.30
2019-01-19T12:30:35.248Z,17.05
2019-01-19T12:33:04.378Z,19.32
2019-01-19T12:35:33.338Z,17.77
2019-01-19T12:38:02.771Z,16.10
2019-01-19T12:40:31.636Z,15.70
2019-01-19T12:43:06.351Z,14.63
2019-01-19T12:45:41.144Z,16.00
2019-01-19T12:48:09.881Z,15.13
2019-01-19T12:50:38.728Z,13.35
2019-01-19T12:53:07.465Z,15.60
2019-01-19T12:55:36.311Z,14.30
2019-01-19T12:58:06.388Z,13.50
2019-01-19T13:00:35.216Z,15.18
2019-01-19T13:03:04.343Z,13.60
2019-01-19T13:05:36.576Z,15.28
2019-01-19T13:08:08.709Z,12.78
2019-01-19T13:10:40.581Z,13.72
2019-01-19T13:13:09.812Z,11.50
2019-01-19T13:15:47.155Z,13.28
2019-01-19T13:18:38.715Z,11.70
2019-01-19T13:21:26.734Z,14.07
2019-01-19T13:24:07.268Z,14.25
2019-01-19T13:26:58.608Z,12.93
2019-01-19T13:29:47.108Z,12.30
2019-01-19T13:32:21.781Z,12.00
2019-01-19T13:34:58.755Z,13.22
2019-01-19T13:37:39.471Z,14.57
2019-01-19T13:40:20.189Z,12.95
2019-01-19T13:43:08.287Z,12.18
2019-01-19T13:45:55.250Z,13.25
2019-01-19T13:48:26.996Z,12.30
2019-01-19T13:51:04.867Z,14.65
2019-01-19T13:53:53.443Z,14.35
2019-01-19T13:56:27.838Z,11.60
2019-01-19T13:59:22.457Z,12.60
2019-01-19T14:02:03.576Z,11.63
2019-01-19T14:04:44.404Z,11.55
2019-01-19T14:07:18.740Z,12.63
2019-01-19T14:10:05.717Z,11.20
2019-01-19T14:12:49.506Z,12.73
2019-01-19T14:15:33.404Z,12.53
2019-01-19T14:18:23.067Z,11.97
2019-01-19T14:21:05.688Z,12.83
2019-01-19T14:23:45.052Z,11.75
2019-01-19T14:26:43.659Z,11.57
2019-01-19T14:29:30.330Z,11.73
2019-01-19T14:32:17.049Z,12.73
2019-01-19T14:35:12.688Z,11.53
2019-01-19T14:37:53.448Z,13.15
2019-01-19T14:40:34.074Z,12.00
2019-01-19T14:43:24.211Z,13.10
2019-01-19T14:45:55.907Z,10.48
2019-01-19T14:48:33.435Z,12.80
2019-01-19T14:51:11.080Z,10.58
2019-01-19T14:53:42.747Z,10.00
2019-01-19T14:56:23.512Z,12.20
2019-01-19T14:58:58.240Z,11.08
2019-01-19T15:01:53.920Z,11.00
2019-01-19T15:04:37.277Z,9.98
2019-01-19T15:07:31.538Z,10.03
2019-01-19T15:10:12.435Z,9.80
2019-01-19T15:12:58.508Z,9.63
2019-01-19T15:15:50.091Z,10.88
2019-01-19T15:18:38.335Z,11.38
2019-01-19T15:21:15.879Z,9.00
2019-01-19T15:23:50.331Z,11.10
2019-01-19T15:26:39.979Z,11.22
2019-01-19T15:29:38.668Z,11.40
2019-01-19T15:32:45.628Z,11.35
2019-01-19T15:35:26.133Z,14.17
2019-01-19T15:38:14.324Z,14.63
2019-01-19T15:40:57.987Z,13.25
2019-01-19T15:43:51.343Z,15.00
2019-01-19T15:46:42.364Z,13.38
2019-01-19T15:49:19.760Z,15.03
2019-01-19T15:52:09.732Z,13.93
2019-01-19T15:54:50.033Z,15.98
2019-01-19T15:57:27.624Z,16.65
2019-01-19T16:00:20.272Z,15.33
2019-01-19T16:02:57.691Z,18.35
2019-01-19T16:06:02.442Z,16.95
2019-01-19T16:08:56.542Z,18.35
2019-01-19T16:11:34.516Z,18.67
2019-01-19T16:14:08.959Z,16.30
2019-01-19T16:17:02.981Z,17.13
2019-01-19T16:19:43.511Z,17.27
2019-01-19T16:22:21.092Z,20.32
2019-01-19T16:25:01.655Z,18.42
2019-01-19T16:27:42.313Z,19.05
2019-01-19T16:30:16.686Z,20.15
2019-01-19T16:33:16.702Z,20.68
2019-01-19T16:35:57.128Z,22.75
2019-01-19T16:38:28.795Z,20.48
2019-01-19T16:41:15.411Z,21.77
2019-01-19T16:43:50.219Z,20.77
2019-01-19T16:46:48.727Z,23.32
2019-01-19T16:49:23.263Z,23.18
2019-01-19T16:51:57.560Z,21.00
2019-01-19T16:54:46.812Z,21.93
2019-01-19T16:57:33.841Z,20.85
2019-01-19T17:00:17.335Z,20.77
2019-01-19T17:03:13.271Z,21.90
2019-01-19T17:05:54.103Z,19.85
2019-01-19T17:08:37.619Z,22.03
2019-01-19T17:11:15.280Z,20.05
2019-01-19T17:14:11.476Z,20.80
2019-01-19T17:16:52.179Z,20.23
2019-01-19T17:20:01.489Z,22.60
2019-01-19T17:23:08.831Z,23.52
2019-01-19T17:25:58.707Z,22.48
2019-01-19T17:28:36.156Z,19.50
2019-01-19T17:31:28.482Z,20.55
2019-01-19T17:34:18.063Z,19.50
2019-01-19T17:36:55.675Z,19.10
2019-01-19T17:39:46.587Z,18.98
2019-01-19T17:42:43.835Z,18.62
2019-01-19T17:45:34.851Z,20.60
2019-01-19T17:48:22.755Z,20.83
2019-01-19T17:51:16.732Z,16.65
2019-01-19T17:53:57.203Z,19.05
2019-01-19T17:56:37.563Z,19.20
2019-01-19T17:59:09.268Z,19.67
2019-01-19T18:02:00.336Z,16.07
2019-01-19T18:04:32.031Z,15.75
2019-01-19T18:07:21.904Z,15.78
2019-01-19T18:10:10.111Z,17.05
2019-01-19T18:12:50.888Z,15.72
2019-01-19T18:15:25.432Z,15.07
2019-01-19T18:18:12.412Z,17.40
2019-01-19T18:20:55.534Z,16.17
2019-01-19T18:23:42.180Z,16.50
2019-01-19T18:26:13.971Z,15.85
2019-01-19T18:29:14.729Z,16.65
2019-01-19T18:32:04.026Z,16.45
2019-01-19T18:34:44.504Z,16.42
2019-01-19T18:37:31.324Z,18.30
2019-01-19T18:40:19.535Z,16.93
2019-01-19T18:42:57.016Z,15.88
2019-01-19T18:45:40.993Z,18.15
2019-01-19T18:48:33.831Z,16.95
2019-01-19T18:51:11.561Z,16.77
2019-01-19T18:53:49.279Z,17.05
2019-01-19T18:56:55.644Z,16.67
2019-01-19T18:59:36.476Z,18.42
2019-01-19T19:02:26.184Z,17.77
2019-01-19T19:05:25.376Z,19.37
2019-01-19T19:07:59.772Z,16.82
2019-01-19T19:10:43.456Z,16.55
2019-01-19T19:13:30.323Z,17.37
2019-01-19T19:16:02.484Z,18.25
2019-01-19T19:18:49.345Z,17.57
2019-01-19T19:21:39.294Z,17.98
2019-01-19T19:24:12.250Z,17.30
2019-01-19T19:27:12.615Z,21.90
2019-01-19T19:30:08.153Z,21.55
2019-01-19T19:32:51.978Z,20.35
2019-01-19T19:35:45.993Z,20.65
2019-01-19T19:38:32.565Z,20.10
2019-01-19T19:41:31.985Z,19.35
2019-01-19T19:44:08.992Z,18.55
2019-01-19T19:47:00.518Z,17.98
2019-01-19T19:49:42.422Z,18.73
2019-01-19T19:52:11.531Z,17.98
2019-01-19T19:54:42.321Z,18.67
2019-01-19T19:57:11.991Z,20.08
2019-01-19T19:59:40.962Z,21.33
2019-01-19T20:02:10.120Z,18.73
2019-01-19T20:04:40.996Z,19.10
2019-01-19T20:07:13.012Z,21.10
2019-01-19T20:09:41.897Z,20.17
2019-01-19T20:12:10.885Z,21.23
2019-01-19T20:14:40.054Z,17.95
2019-01-19T20:17:10.066Z,19.27
2019-01-19T20:19:39.591Z,20.70
2019-01-19T20:22:08.806Z,23.40
2019-01-19T20:24:37.556Z,22.70
2019-01-19T20:27:06.734Z,19.95
2019-01-19T20:29:35.466Z,24.47
2019-01-19T20:32:04.896Z,21.85
2019-01-19T20:34:33.642Z,22.25
2019-01-19T20:37:02.401Z,21.55
2019-01-19T20:39:31.268Z,22.52
2019-01-19T20:42:00.156Z,21.23
2019-01-19T20:44:28.883Z,20.43
2019-01-19T20:46:57.824Z,25.17
2019-01-19T20:49:26.557Z,22.07
2019-01-19T20:51:55.327Z,22.58
2019-01-19T20:54:24.070Z,24.55
2019-01-19T20:56:52.840Z,24.02
2019-01-19T20:59:21.706Z,23.40
2019-01-19T21:01:50.560Z,24.32
2019-01-19T21:04:19.268Z,22.77
2019-01-19T21:06:48.035Z,23.25
2019-01-19T21:09:16.769Z,24.12
2019-01-19T21:11:45.537Z,21.68
2019-01-19T21:14:14.270Z,23.47
2019-01-19T21:16:43.032Z,25.25
2019-01-19T21:19:11.872Z,23.87
2019-01-19T21:21:40.637Z,24.95
2019-01-19T21:24:09.370Z,23.63
2019-01-19T21:26:38.306Z,24.95
2019-01-19T21:29:07.124Z,23.98
2019-01-19T21:31:35.920Z,24.82
2019-01-19T21:34:04.780Z,23.22
2019-01-19T21:36:33.516Z,23.57
2019-01-19T21:39:02.353Z,23.27
2019-01-19T21:41:31.084Z,25.20
2019-01-19T21:43:59.846Z,24.23
2019-01-19T21:46:28.588Z,26.87
2019-01-19T21:48:57.352Z,24.63
2019-01-19T21:51:26.087Z,22.58
2019-01-19T21:53:54.865Z,24.45
2019-01-19T21:56:23.595Z,21.12
2019-01-19T21:58:52.356Z,24.80
2019-01-19T22:01:21.127Z,23.00
2019-01-19T22:03:49.899Z,25.27
2019-01-19T22:06:18.643Z,24.52
2019-01-19T22:08:47.481Z,25.27
2019-01-19T22:11:16.216Z,25.72
2019-01-19T22:13:45.031Z,24.40
2019-01-19T22:16:13.767Z,24.77
2019-01-19T22:18:42.600Z,24.40
2019-01-19T22:21:11.336Z,25.88
2019-01-19T22:23:40.103Z,24.93
2019-01-19T22:26:10.488Z,24.02
2019-01-19T22:28:39.295Z,24.98
2019-01-19T22:31:08.030Z,25.95
2019-01-19T22:33:36.868Z,24.07
2019-01-19T22:36:05.600Z,23.62
2019-01-19T22:38:34.368Z,27.98
2019-01-19T22:41:03.200Z,26.12
2019-01-19T22:43:31.936Z,25.00
2019-01-19T22:46:00.707Z,23.65
2019-01-19T22:48:29.441Z,25.70
2019-01-19T22:50:58.267Z,28.75
2019-01-19T22:53:27.020Z,24.43
2019-01-19T22:55:55.783Z,27.37
2019-01-19T22:58:24.519Z,24.57
2019-01-19T23:01:20.676Z,24.77
2019-01-19T23:03:49.412Z,25.17
2019-01-19T23:06:18.179Z,23.98
2019-01-19T23:08:46.916Z,21.97
2019-01-19T23:11:15.755Z,25.48
2019-01-19T23:13:44.576Z,24.83
2019-01-19T23:16:13.409Z,23.75
2019-01-19T23:18:42.152Z,25.77
2019-01-19T23:21:13.876Z,24.27
2019-01-19T23:23:42.605Z,23.60
2019-01-19T23:26:11.936Z,24.57
2019-01-19T23:28:40.700Z,23.20
2019-01-19T23:31:09.435Z,23.50
2019-01-19T23:33:38.207Z,24.07
2019-01-19T23:36:06.939Z,23.87
2019-01-19T23:38:35.721Z,24.27
2019-01-19T23:41:08.863Z,24.87
2019-01-19T23:43:34.853Z,21.97
2019-01-19T23:46:03.632Z,25.12
2019-01-19T23:48:32.441Z,23.50
2019-01-19T23:51:01.251Z,26.15
2019-01-19T23:53:30.006Z,24.05
2019-01-19T23:55:58.750Z,24.63
2019-01-19T23:58:27.519Z,24.92
